sim
Sign-in with your pilot id or email,
or register
Callsign
Passwort

Schedule Details

Flight Number: DLH1992 (1)
Departure: Munich Airport (EDDM) at 17:45
Arrival: Cologne Bonn Airport (EDDK) at 18:50
Route: Lufthansa Passenger Schedule. Enter filed route here before submitting Pirep.

Weather Information
Getting current METAR information for EDDM 231420Z 22006KT 190V260 9999 FEW020TCU SCT043 19/16 Q1009 NOSIG
Getting current METAR information for EDDK 231420Z 19010KT 160V220 CAVOK 24/11 Q1004 NOSIG

Schedule Frequency

Route Map